logo
Search for airport 
image banner adimage banner adimage banner ad
image banner ad

KRUT - Rutland/Southern Vermont Rgnl

Located in Rutland, United States

ICAO - RUT, IATA - RUT

Data provided by Airmate  

General information

Coordinates: N43°31'47" W72°56'59"
Elevation is 787 feet MSL.
Magnetic variation is -15° East
View others Airports in Vermont

Operational data

Special qualification required
Current time UTC:
Current local time:
Weather
METAR: KRUT 131456Z AUTO 23013G19KT 10SM FEW035 BKN041 OVC049 A2944 RMK AO2 SLPNO 60000 53003 FZRANO $
TAF: KRUT 131120Z 1312/1412 22009KT P6SM VCSH SCT025 BKN040 FM131600 24010G16KT P6SM -SHRA OVC015 FM140100 28012G19KT P6SM VCSH OVC015 FM140400 29011KT P6SM BKN025 FM140900 27008KT P6SM SCT090
View NOTAMs / SUP AIP / TFR affecting this airport [VIEW]
Communications frequencies: [VIEW]

Runways:

RWY identifierQFULength (ft)Width (ft)SurfaceLDA (ft)
01359°5304100ASPH5003
19179°5304100ASPH5003
13119°316975ASPH
31299°316975ASPH

Airport contact information

Address: Rutland United States

Satellite view of KRUT